Time;durP1;ratioP1;P1;durP2;ratioP2;P2;SDS_P1;SDS_P2;PMS_P1;PMS_P2;Temp;Humidity;BMP_temperature;BMP_pressure;BME280_temperature;BME280_humidity;BME280_pressure;Samples;Min_cycle;Max_cycle;Signal;HPM_P1;HPM_P2
2023/03/12 00:00:52;;;;;;;4.23;3.43;;;12.60;40.30;;;;;;5052164;28;20442;-78
2023/03/12 00:03:21;;;;;;;7.77;3.97;;;12.60;40.40;;;;;;5046943;28;20472;-81
2023/03/12 00:05:49;;;;;;;9.10;3.50;;;12.70;40.00;;;;;;5052781;28;20572;-80
2023/03/12 00:08:17;;;;;;;7.37;4.03;;;12.60;40.50;;;;;;5051594;28;20458;-80
2023/03/12 00:10:44;;;;;;;6.50;3.70;;;12.50;40.30;;;;;;5052811;28;20467;-81
2023/03/12 00:13:13;;;;;;;6.80;3.77;;;12.40;40.40;;;;;;5058388;28;20497;-79
2023/03/12 00:15:41;;;;;;;5.00;3.50;;;12.40;40.70;;;;;;5056848;28;20458;-78
2023/03/12 00:18:09;;;;;;;7.50;3.60;;;12.50;40.50;;;;;;5050200;28;20451;-81
2023/03/12 00:20:39;;;;;;;5.27;3.53;;;12.40;40.50;;;;;;5051921;28;20521;-80
2023/03/12 00:23:07;;;;;;;7.10;3.50;;;12.40;40.30;;;;;;5056907;28;20489;-78
2023/03/12 00:25:40;;;;;;;4.73;3.17;;;12.40;40.30;;;;;;5052559;28;20486;-78
2023/03/12 00:28:08;;;;;;;3.60;3.10;;;12.40;40.40;;;;;;5056354;28;20446;-79
2023/03/12 00:30:36;;;;;;;9.43;3.20;;;12.50;40.20;;;;;;5045917;28;20449;-79
2023/03/12 00:33:04;;;;;;;8.40;3.50;;;12.40;40.50;;;;;;5038131;28;20439;-79
2023/03/12 00:35:32;;;;;;;6.87;3.70;;;12.30;40.30;;;;;;5057015;28;20497;-80
2023/03/12 00:38:01;;;;;;;7.50;3.77;;;12.20;40.20;;;;;;5048949;28;20548;-79
2023/03/12 00:40:29;;;;;;;3.27;2.97;;;12.30;40.80;;;;;;5045032;28;20443;-79
2023/03/12 00:42:57;;;;;;;6.17;3.90;;;12.40;40.00;;;;;;5055465;28;20504;-79
2023/03/12 00:45:25;;;;;;;8.83;3.60;;;12.40;40.20;;;;;;5054398;28;20469;-80
2023/03/12 00:47:53;;;;;;;7.90;3.57;;;12.50;40.20;;;;;;5062294;28;20454;-80
2023/03/12 00:50:21;;;;;;;4.97;3.47;;;12.30;40.20;;;;;;5059779;28;20455;-79
2023/03/12 00:52:49;;;;;;;5.73;3.77;;;12.30;40.40;;;;;;5058654;28;20447;-79
2023/03/12 00:55:18;;;;;;;6.40;3.90;;;12.40;40.30;;;;;;5062065;28;20470;-80
2023/03/12 00:57:46;;;;;;;7.40;4.33;;;12.50;40.00;;;;;;5065151;28;20451;-81
2023/03/12 01:00:15;;;;;;;8.20;3.70;;;12.50;40.00;;;;;;5052409;28;20447;-79
2023/03/12 01:02:43;;;;;;;5.70;4.30;;;12.40;39.90;;;;;;5054199;28;20466;-80
2023/03/12 01:05:12;;;;;;;10.03;4.17;;;12.40;39.90;;;;;;5045415;28;20928;-80
2023/03/12 01:07:40;;;;;;;7.20;4.03;;;12.20;40.20;;;;;;5057637;28;20459;-80
2023/03/12 01:10:09;;;;;;;8.67;4.00;;;12.30;40.10;;;;;;5062662;28;20451;-79
2023/03/12 01:12:39;;;;;;;5.90;3.87;;;12.30;40.30;;;;;;5056501;28;20478;-80
2023/03/12 01:15:07;;;;;;;5.23;4.00;;;12.30;40.00;;;;;;5054805;28;20470;-79
2023/03/12 01:17:35;;;;;;;9.10;3.90;;;12.30;40.60;;;;;;5048704;28;20452;-80
2023/03/12 01:20:04;;;;;;;3.97;3.10;;;12.10;40.20;;;;;;5053724;28;20460;-80
2023/03/12 01:22:32;;;;;;;5.77;3.00;;;12.10;40.20;;;;;;5051255;28;20473;-80
2023/03/12 01:25:01;;;;;;;4.20;3.30;;;12.00;40.50;;;;;;5056063;28;20470;-80
2023/03/12 01:27:29;;;;;;;7.83;3.80;;;12.00;40.30;;;;;;5050298;28;20478;-80
2023/03/12 01:29:59;;;;;;;10.60;3.80;;;11.90;40.80;;;;;;5057193;28;20454;-79
2023/03/12 01:32:27;;;;;;;7.20;3.87;;;12.00;40.80;;;;;;5055127;28;20447;-81
2023/03/12 01:34:55;;;;;;;10.23;4.37;;;12.10;40.20;;;;;;5055056;28;20494;-81
2023/03/12 01:37:23;;;;;;;6.53;4.30;;;12.00;40.80;;;;;;5059530;28;20463;-81
2023/03/12 01:39:51;;;;;;;5.87;4.00;;;12.10;40.10;;;;;;5054537;28;20456;-81
2023/03/12 01:42:19;;;;;;;5.93;3.90;;;12.00;40.90;;;;;;5060943;28;20473;-81
2023/03/12 01:44:53;;;;;;;6.97;4.20;;;12.00;40.20;;;;;;5056737;28;20448;-80
2023/03/12 01:47:25;;;;;;;5.20;3.80;;;11.90;40.70;;;;;;5061907;28;20449;-82
2023/03/12 01:49:54;;;;;;;5.70;3.10;;;11.80;40.80;;;;;;5050564;28;20454;-80
2023/03/12 01:52:23;;;;;;;5.80;4.10;;;11.80;41.10;;;;;;5058957;28;20443;-81
2023/03/12 01:54:54;;;;;;;4.80;3.77;;;11.80;40.80;;;;;;5059933;28;20474;-82
2023/03/12 01:57:23;;;;;;;4.63;3.40;;;11.70;40.90;;;;;;5051274;28;20482;-81
2023/03/12 01:59:53;;;;;;;6.23;4.13;;;11.70;40.90;;;;;;5061216;28;20549;-81
2023/03/12 02:02:25;;;;;;;4.93;3.63;;;11.60;40.70;;;;;;5059151;28;20481;-81
2023/03/12 02:04:58;;;;;;;9.23;3.97;;;11.70;41.30;;;;;;5065175;28;20481;-81
2023/03/12 02:07:26;;;;;;;5.33;3.60;;;11.70;40.90;;;;;;5058789;28;20450;-81
2023/03/12 02:09:54;;;;;;;8.43;4.00;;;11.80;40.90;;;;;;5048987;28;20455;-81
2023/03/12 02:12:22;;;;;;;6.60;3.70;;;11.80;41.00;;;;;;5047722;28;20470;-81
2023/03/12 02:14:50;;;;;;;8.03;3.80;;;11.80;40.90;;;;;;5061951;28;20473;-79
2023/03/12 02:17:18;;;;;;;11.83;6.67;;;11.80;40.50;;;;;;5051036;28;20447;-81
2023/03/12 02:19:50;;;;;;;105.33;51.00;;;11.70;40.70;;;;;;5051462;28;20451;-81
2023/03/12 02:22:19;;;;;;;48.27;25.43;;;11.70;41.00;;;;;;5059000;28;20884;-81
2023/03/12 02:24:50;;;;;;;50.90;24.73;;;11.70;40.60;;;;;;5059605;28;20469;-82
2023/03/12 02:27:19;;;;;;;47.03;24.40;;;11.70;40.90;;;;;;5060966;28;20481;-80
2023/03/12 02:29:47;;;;;;;40.90;21.00;;;11.80;41.30;;;;;;5055951;28;20454;-81
2023/03/12 02:32:18;;;;;;;33.13;17.13;;;11.70;41.20;;;;;;5056450;28;20477;-80
2023/03/12 02:34:46;;;;;;;26.33;14.60;;;11.70;41.10;;;;;;5051440;28;20443;-81
2023/03/12 02:37:14;;;;;;;26.03;14.30;;;11.60;41.10;;;;;;5058508;28;20547;-81
2023/03/12 02:39:42;;;;;;;21.60;11.30;;;11.60;41.70;;;;;;5052281;28;20476;-81
2023/03/12 02:42:10;;;;;;;22.40;10.50;;;11.70;40.80;;;;;;5055643;28;20471;-81
2023/03/12 02:44:39;;;;;;;15.10;8.93;;;11.60;41.40;;;;;;5052614;28;20451;-80
2023/03/12 02:47:08;;;;;;;12.23;6.93;;;11.70;41.20;;;;;;5055537;28;20449;-81
2023/03/12 02:49:36;;;;;;;11.77;6.37;;;11.50;40.70;;;;;;5057489;28;20446;-80
2023/03/12 02:52:04;;;;;;;9.47;6.10;;;11.40;41.60;;;;;;5045719;28;20458;-81
2023/03/12 02:54:32;;;;;;;12.00;6.20;;;11.50;42.00;;;;;;5048927;28;20443;-80
2023/03/12 02:57:00;;;;;;;7.70;5.63;;;11.40;41.10;;;;;;5056379;28;20470;-81
2023/03/12 02:59:28;;;;;;;8.00;4.57;;;11.40;42.10;;;;;;5063981;28;20466;-81
2023/03/12 03:01:59;;;;;;;7.10;4.30;;;11.50;41.60;;;;;;5060859;28;20489;-80
2023/03/12 03:04:27;;;;;;;7.90;4.07;;;11.50;41.40;;;;;;5059732;28;20561;-81
2023/03/12 03:06:56;;;;;;;5.60;4.00;;;11.50;41.20;;;;;;5050515;28;20466;-81
2023/03/12 03:09:24;;;;;;;5.30;4.20;;;11.40;41.90;;;;;;5059933;28;20455;-81
2023/03/12 03:11:52;;;;;;;6.50;3.60;;;11.60;42.40;;;;;;5053018;28;20471;-81
2023/03/12 03:14:20;;;;;;;5.00;3.80;;;11.60;41.40;;;;;;5046981;28;20447;-80
2023/03/12 03:16:48;;;;;;;6.70;4.17;;;11.60;41.60;;;;;;5054351;28;20481;-80
2023/03/12 03:19:17;;;;;;;5.33;3.63;;;11.40;41.10;;;;;;5051944;28;20461;-80
2023/03/12 03:21:45;;;;;;;6.77;3.60;;;11.40;41.40;;;;;;5053824;28;20446;-80
2023/03/12 03:24:13;;;;;;;4.30;3.90;;;11.30;41.90;;;;;;5049810;28;20472;-81
2023/03/12 03:26:41;;;;;;;9.00;4.33;;;11.50;42.00;;;;;;5061810;28;20482;-80
2023/03/12 03:29:09;;;;;;;5.50;3.33;;;11.70;41.20;;;;;;5052624;28;20461;-80
2023/03/12 03:31:37;;;;;;;5.53;3.77;;;11.80;41.80;;;;;;5050590;28;20466;-81
2023/03/12 03:34:04;;;;;;;3.83;3.50;;;11.80;41.10;;;;;;5049909;28;20438;-81
2023/03/12 03:36:34;;;;;;;3.93;3.53;;;11.80;41.10;;;;;;5050790;28;20551;-81
2023/03/12 03:39:03;;;;;;;5.00;4.00;;;12.00;41.00;;;;;;5059000;28;20438;-80
2023/03/12 03:41:32;;;;;;;5.47;3.03;;;12.00;40.70;;;;;;5052013;28;20473;-80
2023/03/12 03:44:00;;;;;;;3.63;3.17;;;12.00;40.70;;;;;;5050397;28;20514;-81
2023/03/12 03:46:30;;;;;;;8.83;3.90;;;12.00;40.60;;;;;;5059210;28;20478;-81
2023/03/12 03:48:58;;;;;;;8.67;4.03;;;12.00;40.50;;;;;;5055790;28;20439;-81
2023/03/12 03:51:26;;;;;;;6.67;3.60;;;11.90;40.80;;;;;;5051256;28;20461;-80
2023/03/12 03:53:56;;;;;;;6.83;3.30;;;11.90;40.80;;;;;;5059551;28;20477;-81
2023/03/12 03:56:24;;;;;;;3.43;3.10;;;11.90;40.40;;;;;;5058342;28;20461;-80
2023/03/12 03:58:51;;;;;;;4.70;3.20;;;11.80;40.80;;;;;;5054477;28;20455;-81
2023/03/12 04:01:20;;;;;;;7.77;3.43;;;11.80;40.90;;;;;;5059195;28;20446;-81
2023/03/12 04:03:48;;;;;;;4.23;3.40;;;11.80;40.80;;;;;;5054026;28;20478;-80
2023/03/12 04:06:15;;;;;;;5.83;3.67;;;11.70;40.70;;;;;;5062226;28;20480;-80
2023/03/12 04:08:43;;;;;;;6.03;3.47;;;11.80;40.60;;;;;;5058989;28;20453;-81
2023/03/12 04:11:13;;;;;;;3.90;3.07;;;11.80;40.70;;;;;;5054129;28;20838;-80
2023/03/12 04:13:41;;;;;;;4.97;3.17;;;11.70;40.60;;;;;;5053337;28;20485;-80
2023/03/12 04:16:09;;;;;;;5.80;2.97;;;11.70;40.70;;;;;;5056763;28;20481;-80
2023/03/12 04:18:37;;;;;;;4.27;3.57;;;11.70;40.40;;;;;;5055405;28;20459;-79
2023/03/12 04:21:06;;;;;;;3.27;2.90;;;11.70;40.90;;;;;;5049313;28;20573;-80
2023/03/12 04:23:34;;;;;;;8.90;3.53;;;11.70;40.70;;;;;;5046557;28;20851;-80
2023/03/12 04:26:02;;;;;;;4.10;3.17;;;11.70;40.70;;;;;;5052547;28;20471;-80
2023/03/12 04:28:31;;;;;;;4.63;3.07;;;11.60;40.80;;;;;;5061718;28;20456;-80
2023/03/12 04:31:00;;;;;;;3.73;3.43;;;11.70;40.90;;;;;;5055203;28;20450;-80
2023/03/12 04:33:28;;;;;;;8.00;4.17;;;11.70;40.60;;;;;;5048424;28;20447;-80
2023/03/12 04:35:56;;;;;;;5.43;4.17;;;11.70;40.60;;;;;;5054468;28;20503;-80
2023/03/12 04:38:25;;;;;;;4.50;4.10;;;11.60;40.30;;;;;;5054309;28;20489;-80
2023/03/12 04:41:00;;;;;;;5.80;3.60;;;11.60;40.70;;;;;;5056250;28;20471;-80
2023/03/12 04:43:28;;;;;;;4.90;3.43;;;11.40;41.00;;;;;;5066336;28;20464;-81
2023/03/12 04:45:57;;;;;;;6.47;3.50;;;11.30;41.00;;;;;;5054910;28;20478;-80
2023/03/12 04:48:26;;;;;;;5.23;3.50;;;11.40;40.90;;;;;;5064007;28;20445;-80
2023/03/12 04:50:53;;;;;;;3.90;3.37;;;11.30;41.50;;;;;;5061381;28;20457;-81
2023/03/12 04:53:21;;;;;;;4.77;3.60;;;11.40;40.40;;;;;;5058324;28;20462;-80
2023/03/12 04:55:50;;;;;;;5.23;3.20;;;11.30;40.60;;;;;;5049508;28;20477;-80
2023/03/12 04:58:18;;;;;;;5.73;3.83;;;11.30;40.80;;;;;;5051278;28;20456;-81
2023/03/12 05:00:46;;;;;;;6.40;3.50;;;11.20;40.40;;;;;;5056786;28;20455;-80
2023/03/12 05:03:16;;;;;;;4.97;3.67;;;11.30;41.60;;;;;;5065990;28;20540;-80
2023/03/12 05:05:44;;;;;;;8.60;3.60;;;11.40;41.10;;;;;;5052166;28;20561;-80
2023/03/12 05:08:12;;;;;;;5.37;3.50;;;11.40;41.20;;;;;;5053903;28;20454;-80
2023/03/12 05:10:40;;;;;;;3.77;3.30;;;11.20;41.00;;;;;;5055606;28;20480;-80
2023/03/12 05:13:13;;;;;;;7.53;3.40;;;11.40;41.20;;;;;;5053197;28;20456;-80
2023/03/12 05:15:41;;;;;;;7.10;3.83;;;11.50;41.10;;;;;;5056764;28;20462;-80
2023/03/12 05:18:09;;;;;;;5.50;3.50;;;11.50;41.00;;;;;;5061593;28;20450;-80
2023/03/12 05:20:38;;;;;;;4.03;3.23;;;11.60;40.80;;;;;;5059905;28;20446;-80
2023/03/12 05:23:06;;;;;;;4.70;3.50;;;11.60;40.80;;;;;;5059004;28;20510;-80
2023/03/12 05:25:35;;;;;;;6.27;3.30;;;11.70;40.60;;;;;;5057003;28;20479;-80
2023/03/12 05:28:03;;;;;;;4.30;3.60;;;11.70;40.50;;;;;;5060705;28;20445;-80
2023/03/12 05:30:31;;;;;;;5.13;3.87;;;11.70;40.50;;;;;;5069175;28;20529;-80
2023/03/12 05:32:59;;;;;;;5.50;3.50;;;11.80;40.50;;;;;;5063391;28;20447;-80
2023/03/12 05:35:27;;;;;;;4.93;3.80;;;11.80;40.60;;;;;;5060252;28;20480;-80
2023/03/12 05:37:56;;;;;;;5.40;3.87;;;11.90;40.10;;;;;;5054385;28;20462;-80
2023/03/12 05:40:24;;;;;;;3.97;3.33;;;11.90;40.00;;;;;;5055371;28;20457;-80
2023/03/12 05:42:53;;;;;;;6.80;3.83;;;11.90;40.10;;;;;;5044629;28;20451;-80
2023/03/12 05:45:20;;;;;;;10.37;4.00;;;11.90;40.00;;;;;;5060438;28;20478;-79
2023/03/12 05:47:48;;;;;;;8.40;3.63;;;11.90;40.10;;;;;;5051196;28;20539;-80
2023/03/12 05:50:16;;;;;;;4.20;3.80;;;11.90;40.20;;;;;;5046341;28;20451;-80
2023/03/12 05:52:44;;;;;;;3.80;3.40;;;11.90;40.30;;;;;;5056357;28;20836;-80
2023/03/12 05:55:13;;;;;;;6.10;4.23;;;11.70;40.40;;;;;;5054890;28;20467;-80
2023/03/12 05:57:41;;;;;;;4.07;3.57;;;11.80;40.30;;;;;;5055970;28;20468;-80
2023/03/12 06:00:12;;;;;;;7.63;4.50;;;11.80;40.40;;;;;;5054282;28;20452;-80
2023/03/12 06:02:40;;;;;;;6.33;4.20;;;11.80;39.80;;;;;;5066146;28;20462;-81
2023/03/12 06:05:09;;;;;;;6.53;4.00;;;11.80;40.50;;;;;;5050513;28;20476;-80
2023/03/12 06:07:37;;;;;;;5.73;4.07;;;11.80;40.40;;;;;;5066998;28;20458;-80
2023/03/12 06:10:07;;;;;;;6.73;4.30;;;11.90;40.20;;;;;;5054668;28;20478;-80
2023/03/12 06:12:36;;;;;;;9.77;4.83;;;11.80;40.20;;;;;;5046906;28;20479;-80
2023/03/12 06:15:05;;;;;;;8.57;4.57;;;11.80;40.50;;;;;;5062073;28;20470;-80
2023/03/12 06:17:33;;;;;;;6.87;4.90;;;11.60;40.40;;;;;;5057219;28;20442;-80
2023/03/12 06:20:01;;;;;;;7.50;4.73;;;11.70;40.60;;;;;;5052200;28;20470;-80
2023/03/12 06:22:29;;;;;;;8.83;4.70;;;11.80;40.50;;;;;;5059331;28;20451;-80
2023/03/12 06:24:57;;;;;;;7.40;5.33;;;11.80;40.30;;;;;;5054201;28;20474;-80
2023/03/12 06:27:25;;;;;;;6.30;4.67;;;11.90;40.10;;;;;;5051058;28;20471;-80
2023/03/12 06:29:54;;;;;;;5.73;4.70;;;11.80;40.00;;;;;;5056888;28;20442;-80
2023/03/12 06:32:22;;;;;;;7.97;5.40;;;11.80;40.70;;;;;;5055395;28;20454;-79
2023/03/12 06:34:50;;;;;;;9.63;4.77;;;11.80;39.60;;;;;;5059541;28;20455;-80
2023/03/12 06:37:18;;;;;;;10.27;4.60;;;11.80;40.20;;;;;;5046702;28;20442;-81
2023/03/12 06:39:46;;;;;;;9.83;5.53;;;11.90;40.00;;;;;;5057132;28;20454;-80
2023/03/12 06:42:16;;;;;;;7.50;5.00;;;11.90;40.00;;;;;;5052879;28;20486;-81
2023/03/12 06:44:44;;;;;;;7.97;4.73;;;11.80;40.20;;;;;;5046240;28;20467;-80
2023/03/12 06:47:14;;;;;;;7.43;5.20;;;11.90;40.20;;;;;;5051821;28;20447;-81
2023/03/12 06:49:44;;;;;;;8.13;4.83;;;12.00;40.10;;;;;;5051048;28;20451;-80
2023/03/12 06:52:12;;;;;;;7.60;5.37;;;11.90;39.70;;;;;;5046685;28;20449;-80
2023/03/12 06:54:40;;;;;;;8.10;5.40;;;11.80;40.40;;;;;;5053201;28;20449;-80
2023/03/12 06:57:08;;;;;;;8.73;5.50;;;11.90;40.30;;;;;;5059812;28;20465;-80
2023/03/12 06:59:35;;;;;;;8.83;5.23;;;12.00;40.00;;;;;;5058865;28;20449;-80
2023/03/12 07:02:03;;;;;;;6.20;5.33;;;12.00;39.60;;;;;;5062126;28;20446;-81
2023/03/12 07:04:32;;;;;;;8.97;5.37;;;12.00;39.80;;;;;;5056826;28;20536;-80
2023/03/12 07:07:00;;;;;;;9.47;5.50;;;12.10;39.80;;;;;;5056436;28;20473;-81
2023/03/12 07:09:28;;;;;;;13.03;7.30;;;12.20;39.10;;;;;;5048753;28;20478;-80
2023/03/12 07:11:56;;;;;;;11.27;6.90;;;12.10;39.80;;;;;;5048108;28;20478;-80
2023/03/12 07:14:24;;;;;;;13.27;6.77;;;12.20;39.00;;;;;;5052788;28;20462;-80
2023/03/12 07:16:52;;;;;;;10.33;6.47;;;12.20;39.20;;;;;;5050386;28;20469;-80
2023/03/12 07:19:20;;;;;;;9.23;6.20;;;12.10;39.70;;;;;;5052846;28;20450;-81
2023/03/12 07:21:49;;;;;;;8.33;6.00;;;12.10;39.50;;;;;;5051570;28;20452;-81
2023/03/12 07:24:17;;;;;;;6.10;5.50;;;12.20;39.60;;;;;;5060049;28;20461;-81
2023/03/12 07:26:45;;;;;;;7.33;5.80;;;12.20;39.40;;;;;;5054040;28;20489;-80
2023/03/12 07:29:13;;;;;;;9.50;6.07;;;12.10;39.10;;;;;;5048053;28;20474;-81
2023/03/12 07:31:40;;;;;;;9.83;6.10;;;12.10;39.40;;;;;;5064223;28;20456;-81
2023/03/12 07:34:08;;;;;;;16.67;6.60;;;12.00;39.20;;;;;;5059615;28;20525;-81
2023/03/12 07:36:36;;;;;;;6.60;5.77;;;12.10;38.80;;;;;;5058777;28;20469;-80
2023/03/12 07:39:07;;;;;;;10.63;5.80;;;12.00;39.70;;;;;;5051319;28;20451;-80
2023/03/12 07:41:36;;;;;;;11.90;6.10;;;12.00;39.10;;;;;;5056079;28;20478;-81
2023/03/12 07:44:05;;;;;;;8.17;5.33;;;12.10;39.60;;;;;;5056510;28;20461;-81
2023/03/12 07:46:33;;;;;;;9.43;6.00;;;12.20;39.30;;;;;;5060269;28;20530;-81
2023/03/12 07:49:00;;;;;;;12.67;7.20;;;12.30;39.00;;;;;;5059514;28;20531;-81
2023/03/12 07:51:28;;;;;;;13.90;6.77;;;12.20;38.30;;;;;;5048357;28;20459;-81
2023/03/12 07:53:56;;;;;;;9.70;6.57;;;12.20;39.10;;;;;;5047023;28;20455;-81
2023/03/12 07:56:26;;;;;;;11.60;7.50;;;12.30;39.30;;;;;;5061207;28;20485;-80
2023/03/12 07:58:54;;;;;;;10.50;6.73;;;12.30;38.90;;;;;;5048105;28;20443;-81
2023/03/12 08:01:24;;;;;;;9.20;6.87;;;12.40;38.60;;;;;;5052796;28;20455;-81
2023/03/12 08:03:54;;;;;;;9.20;6.23;;;12.30;39.20;;;;;;5044459;28;20469;-81
2023/03/12 08:06:23;;;;;;;11.50;6.70;;;12.50;39.00;;;;;;5046957;28;20508;-81
2023/03/12 08:08:51;;;;;;;9.30;6.40;;;12.40;38.80;;;;;;5048385;28;20453;-81
2023/03/12 08:11:19;;;;;;;10.27;7.03;;;12.40;38.10;;;;;;5060338;28;20470;-81
2023/03/12 08:13:48;;;;;;;8.80;6.53;;;12.60;39.00;;;;;;5056510;28;20446;-81
2023/03/12 08:16:17;;;;;;;8.13;6.03;;;12.60;38.00;;;;;;5050463;28;20466;-81
2023/03/12 08:18:45;;;;;;;9.63;7.10;;;12.70;38.70;;;;;;5068004;28;20537;-81
2023/03/12 08:21:15;;;;;;;11.93;6.40;;;12.70;37.60;;;;;;5068867;28;20449;-82
2023/03/12 08:23:43;;;;;;;10.80;6.30;;;12.80;38.00;;;;;;5060614;28;20455;-82
2023/03/12 08:26:11;;;;;;;6.77;6.00;;;12.90;37.70;;;;;;5053846;28;20486;-82
2023/03/12 08:28:39;;;;;;;7.87;5.50;;;12.90;37.60;;;;;;5049311;28;20459;-82
2023/03/12 08:31:08;;;;;;;7.10;5.60;;;13.00;37.40;;;;;;5066494;28;20943;-82
2023/03/12 08:33:39;;;;;;;10.97;6.10;;;13.10;37.40;;;;;;5056891;28;20457;-82
2023/03/12 08:36:11;;;;;;;6.77;5.83;;;13.20;37.00;;;;;;5055774;28;20467;-82
2023/03/12 08:38:41;;;;;;;7.83;6.23;;;13.40;37.30;;;;;;5052842;28;20451;-82
2023/03/12 08:41:12;;;;;;;8.40;5.03;;;13.30;36.40;;;;;;5057309;28;20457;-82
2023/03/12 08:43:40;;;;;;;8.40;6.00;;;13.40;37.00;;;;;;5053851;28;20454;-82
2023/03/12 08:46:09;;;;;;;11.27;6.30;;;13.30;36.70;;;;;;5049184;28;20489;-81
2023/03/12 08:48:39;;;;;;;9.80;5.50;;;13.50;36.70;;;;;;5056320;28;20465;-82
2023/03/12 08:51:07;;;;;;;12.27;6.20;;;13.50;36.20;;;;;;5056173;28;20533;-83
2023/03/12 08:53:35;;;;;;;6.67;5.03;;;13.50;36.10;;;;;;5060548;28;20461;-83
2023/03/12 08:56:04;;;;;;;11.67;5.97;;;13.40;36.40;;;;;;5059616;28;20475;-83
2023/03/12 08:58:32;;;;;;;6.83;5.60;;;13.40;36.00;;;;;;5064767;28;20513;-82
2023/03/12 09:01:00;;;;;;;8.83;5.30;;;13.50;36.20;;;;;;5059725;28;20481;-83
2023/03/12 09:03:30;;;;;;;7.57;5.67;;;13.40;35.80;;;;;;5065429;28;20518;-83
2023/03/12 09:46:32;;;;;;;5.53;4.83;;;12.80;36.80;;;;;;4979729;28;20238;-82
2023/03/12 09:49:49;;;;;;;15.20;5.60;;;13.20;36.40;;;;;;4992126;28;20681;-82
2023/03/12 09:53:26;;;;;;;13.73;6.17;;;13.60;36.40;;;;;;4945372;28;20453;-81
2023/03/12 09:55:56;;;;;;;10.63;4.07;;;13.80;35.50;;;;;;5004953;28;20473;-81
2023/03/12 09:58:28;;;;;;;9.27;4.03;;;13.60;41.90;;;;;;5066775;28;20450;-79
2023/03/12 10:01:00;;;;;;;3.97;3.57;;;13.40;42.60;;;;;;5069172;28;20441;-79
2023/03/12 10:03:40;;;;;;;11.20;4.30;;;13.70;44.30;;;;;;5062996;28;20446;-81
2023/03/12 10:06:11;;;;;;;8.33;4.37;;;14.20;43.70;;;;;;5070278;28;20465;-79
2023/03/12 10:08:47;;;;;;;5.33;4.37;;;14.60;42.20;;;;;;5068229;28;20481;-81
2023/03/12 10:11:19;;;;;;;8.60;3.90;;;14.90;42.20;;;;;;5070234;28;20465;-81
2023/03/12 10:13:57;;;;;;;5.83;4.70;;;15.10;43.10;;;;;;5069993;28;20446;-80
2023/03/12 10:16:41;;;;;;;4.50;3.73;;;15.20;41.20;;;;;;5070245;28;20469;-82
2023/03/12 10:19:16;;;;;;;4.70;3.93;;;14.90;41.00;;;;;;5065652;28;20528;-81
2023/03/12 10:21:46;;;;;;;6.80;4.40;;;14.60;41.80;;;;;;5070466;28;20456;-81
2023/03/12 10:24:23;;;;;;;6.03;4.20;;;14.60;40.30;;;;;;5108045;28;20452;-83
2023/03/12 10:26:54;;;;;;;11.43;4.07;;;14.40;40.10;;;;;;5103863;28;20501;-82
2023/03/12 10:29:24;;;;;;;5.40;3.93;;;14.20;40.00;;;;;;5111702;28;20444;-81
2023/03/12 10:31:53;;;;;;;13.30;3.90;;;14.10;40.30;;;;;;5111789;28;20460;-81
2023/03/12 10:34:25;;;;;;;12.63;4.07;;;14.10;41.00;;;;;;5110418;28;20478;-83
2023/03/12 10:36:53;;;;;;;4.17;3.77;;;14.00;40.00;;;;;;5108020;28;20467;-81
2023/03/12 10:39:21;;;;;;;10.33;3.73;;;13.80;39.50;;;;;;5109707;28;20448;-82
2023/03/12 10:41:51;;;;;;;6.80;3.90;;;13.60;38.90;;;;;;5109234;28;20467;-85
2023/03/12 10:44:21;;;;;;;5.83;3.77;;;13.40;39.80;;;;;;5097925;28;20463;-82
2023/03/12 10:46:58;;;;;;;5.20;3.73;;;13.20;39.40;;;;;;5092992;28;20559;-81
2023/03/12 10:49:31;;;;;;;7.10;4.27;;;13.00;39.70;;;;;;5096558;28;20980;-83
2023/03/12 10:52:00;;;;;;;6.80;4.40;;;13.00;41.30;;;;;;5096040;28;20468;-79
2023/03/12 10:54:34;;;;;;;8.03;4.00;;;12.90;41.90;;;;;;5094075;28;20460;-85
2023/03/12 10:57:02;;;;;;;7.33;4.30;;;12.90;43.20;;;;;;5098540;28;20917;-81
2023/03/12 10:59:31;;;;;;;16.60;3.87;;;13.00;43.00;;;;;;5099763;28;20460;-83
2023/03/12 11:02:00;;;;;;;4.20;3.70;;;12.80;43.10;;;;;;5100230;28;20456;-81
2023/03/12 11:04:29;;;;;;;10.93;4.00;;;12.90;43.70;;;;;;5095646;28;20449;-80
2023/03/12 11:07:22;;;;;;;5.47;4.17;;;13.00;43.50;;;;;;5095741;28;20540;-81
2023/03/12 11:10:12;;;;;;;8.50;4.13;;;13.20;44.40;;;;;;5078065;28;20975;-80
2023/03/12 11:12:41;;;;;;;6.83;4.33;;;13.30;44.30;;;;;;5096890;28;20461;-80
2023/03/12 11:15:19;;;;;;;6.10;3.87;;;13.30;44.20;;;;;;5098723;28;20476;-81
2023/03/12 11:17:49;;;;;;;8.80;4.00;;;13.20;44.00;;;;;;5093345;28;20452;-78
2023/03/12 11:20:27;;;;;;;9.07;3.60;;;13.30;47.50;;;;;;5092978;28;20461;-85
2023/03/12 11:22:54;;;;;;;9.40;3.67;;;13.20;47.50;;;;;;5099799;28;20458;-78
2023/03/12 11:25:24;;;;;;;19.00;4.20;;;13.80;46.60;;;;;;5102964;28;20472;-82
2023/03/12 11:27:53;;;;;;;12.17;4.30;;;14.40;47.10;;;;;;5099781;28;20453;-83
2023/03/12 11:30:23;;;;;;;12.23;3.77;;;14.80;45.50;;;;;;5100527;28;20452;-84
2023/03/12 11:32:52;;;;;;;15.80;4.03;;;15.00;44.80;;;;;;5098191;28;20480;-82
2023/03/12 11:35:24;;;;;;;12.10;3.87;;;15.10;44.20;;;;;;5099055;28;20474;-81
2023/03/12 11:37:56;;;;;;;13.30;4.00;;;15.00;43.80;;;;;;5094727;28;20453;-81
2023/03/12 11:40:32;;;;;;;8.47;3.87;;;15.00;43.50;;;;;;5092581;28;20461;-81
2023/03/12 11:43:22;;;;;;;13.00;4.10;;;15.00;43.20;;;;;;5101447;28;20567;-82
2023/03/12 11:46:13;;;;;;;10.80;3.40;;;15.00;43.00;;;;;;5095040;28;20477;-80
2023/03/12 11:48:47;;;;;;;10.20;4.60;;;15.00;42.90;;;;;;5091871;28;20442;-83
2023/03/12 11:51:21;;;;;;;8.70;3.80;;;15.00;42.70;;;;;;5098537;28;20472;-83
2023/03/12 11:53:59;;;;;;;14.70;3.93;;;15.00;42.50;;;;;;5100607;28;20445;-82
2023/03/12 11:56:28;;;;;;;6.57;3.77;;;14.90;42.40;;;;;;5099132;28;20473;-81
2023/03/12 11:59:03;;;;;;;11.20;4.50;;;14.90;42.30;;;;;;5098150;28;20441;-82
2023/03/12 12:01:38;;;;;;;11.30;3.90;;;14.90;42.20;;;;;;5098387;28;20436;-81
2023/03/12 12:04:42;;;;;;;5.70;3.70;;;14.80;42.10;;;;;;5096950;28;20444;-81
2023/03/12 12:07:16;;;;;;;5.13;4.63;;;14.80;42.10;;;;;;5092106;28;20968;-81
2023/03/12 12:09:46;;;;;;;6.87;4.70;;;14.70;42.00;;;;;;5095663;28;20449;-84
2023/03/12 12:12:24;;;;;;;7.10;3.83;;;14.70;42.10;;;;;;5095930;28;20476;-82
2023/03/12 12:15:00;;;;;;;9.43;4.53;;;14.60;42.10;;;;;;5096307;28;20444;-83
2023/03/12 12:17:36;;;;;;;4.73;3.83;;;14.60;42.10;;;;;;5096667;28;20816;-82
2023/03/12 12:20:20;;;;;;;8.47;3.90;;;14.50;42.10;;;;;;5093855;28;20452;-84
2023/03/12 12:22:57;;;;;;;6.00;3.67;;;14.60;42.20;;;;;;5091858;28;20987;-81
2023/03/12 12:25:28;;;;;;;5.03;4.07;;;14.50;42.20;;;;;;5099207;28;20476;-83
2023/03/12 12:28:08;;;;;;;4.67;4.23;;;14.50;42.30;;;;;;5103658;28;20432;-82
2023/03/12 12:30:44;;;;;;;11.47;4.47;;;14.50;42.20;;;;;;5090038;28;20425;-83
2023/03/12 12:33:22;;;;;;;8.10;3.77;;;14.50;44.00;;;;;;5096557;28;20468;-82
2023/03/12 12:35:50;;;;;;;7.20;3.30;;;14.70;44.00;;;;;;5097972;28;20464;-82
2023/03/12 12:38:28;;;;;;;5.70;4.00;;;14.80;43.90;;;;;;5098274;28;20853;-83
2023/03/12 12:41:00;;;;;;;4.17;3.50;;;14.80;43.90;;;;;;5093554;28;20560;-82
2023/03/12 12:43:28;;;;;;;5.30;3.67;;;14.80;43.90;;;;;;5094783;28;20464;-84
2023/03/12 12:45:58;;;;;;;4.80;3.87;;;14.70;43.80;;;;;;5098703;28;20478;-84
2023/03/12 12:48:28;;;;;;;5.47;3.57;;;14.80;43.80;;;;;;5098265;28;20448;-82
2023/03/12 12:50:58;;;;;;;6.10;3.60;;;14.70;43.70;;;;;;5093656;28;20453;-76
2023/03/12 12:53:31;;;;;;;13.13;3.30;;;14.60;44.00;;;;;;5086771;28;20468;-78
2023/03/12 12:56:06;;;;;;;18.67;4.73;;;15.20;50.60;;;;;;5090225;28;20473;-79
2023/03/12 12:58:50;;;;;;;24.57;3.80;;;16.10;52.20;;;;;;5082971;28;20447;-83
2023/03/12 13:01:18;;;;;;;10.80;3.63;;;16.70;52.20;;;;;;5095236;28;20464;-78
2023/03/12 13:03:47;;;;;;;7.77;3.63;;;17.20;51.90;;;;;;5096246;28;20451;-77
2023/03/12 13:06:14;;;;;;;10.53;4.20;;;17.50;51.30;;;;;;5092875;28;20465;-75
2023/03/12 13:09:01;;;;;;;16.73;5.20;;;17.80;51.20;;;;;;5096036;28;20433;-78
2023/03/12 13:11:30;;;;;;;21.07;5.03;;;18.00;51.10;;;;;;5097583;28;20425;-75
2023/03/12 13:14:29;;;;;;;17.30;3.70;;;18.20;51.10;;;;;;5095527;28;20441;-76
2023/03/12 13:17:07;;;;;;;10.13;4.10;;;18.50;50.90;;;;;;5084009;28;20472;-76
2023/03/12 13:19:40;;;;;;;6.73;4.67;;;17.80;45.90;;;;;;5090536;28;20444;-80
2023/03/12 13:22:14;;;;;;;5.07;4.50;;;16.70;45.50;;;;;;5102065;28;20433;-81
2023/03/12 13:24:46;;;;;;;7.83;4.57;;;16.20;46.30;;;;;;5097308;28;20443;-83
2023/03/12 13:27:17;;;;;;;8.57;5.17;;;15.70;46.50;;;;;;5102772;28;20449;-81
2023/03/12 13:29:45;;;;;;;6.00;5.43;;;15.30;46.60;;;;;;5102742;28;20490;-80
2023/03/12 13:32:37;;;;;;;6.20;5.37;;;15.00;47.00;;;;;;5096802;28;21017;-82
2023/03/12 13:35:07;;;;;;;5.40;4.90;;;14.60;46.80;;;;;;5098330;28;20460;-78
2023/03/12 13:38:00;;;;;;;5.40;4.90;;;14.20;47.20;;;;;;5090305;28;20433;-80
2023/03/12 13:41:03;;;;;;;5.97;5.47;;;14.10;48.70;;;;;;5103495;28;20428;-83